SNS weather

Salinas Municipal Airport
Salinas, California, United States

Public forecast

Using degrees Fahrenheit for public forecast. Weather courtesy of forecast.io.

Current aviation weather report (METAR) for Salinas Municipal Airport

Retrieved 2019/10/22 17:53 UTC (10 minutes ago):

KSNS 221753Z 14006KT 10SM CLR 23/07 A3017 RMK AO2 SLP225 T02280072 10228 20100 58003

Aviation forecast (TAF) for Salinas Municipal Airport

Retrieved 2019/10/22 18:42 UTC (0 seconds ago):

TAF KSNS 221739Z 2218/2318 15006KT P6SM SKC FM222000 29010KT P6SM SKC FM230400 VRB04KT P6SM SKC FM230800 12005KT P6SM SKC